Panola, South Carolina
Current Conditions -  °F | °C
As of 4:58 AM on Friday 31 Oct 2014 (Local Time) from KSSC Reporting Station
Broken Clouds Broken Clouds  
Wind Chill:   Ceiling: 6000
Heat Index:   Visibility: 10mi
Dew Point:   Wind: 6mph
Humidity: 87%   Direction: 40°NE
Pressure: 29.9"   Gusts: NA
Location:  33.7445°N, 80.5249°W
Report Text: KSSC 310858Z AUTO 04005KT 10SM BKN060 09/07 A2990 RMK AO2 SLP126 T00940073 57008 $
Loading
Personal Weather Stations






























Interactive Weather Map
Tropical Storm Tracking
New forecast layout! Learn more

10-Day Weather Forecast

Advertisements
Track Severe Weather on mobile